Time;durP1;ratioP1;P1;durP2;ratioP2;P2;SDS_P1;SDS_P2;PMS_P1;PMS_P2;Temp;Humidity;BMP_temperature;BMP_pressure;BME280_temperature;BME280_humidity;BME280_pressure;Samples;Min_cycle;Max_cycle;Signal;HPM_P1;HPM_P2
2022/05/17 00:02:03;;;;;;;;;4.67;4.67;;;;;23.37;45.77;101465.13;5053460;28;45314;-92
2022/05/17 00:04:28;;;;;;;;;5.33;5.00;;;;;23.80;46.05;101529.44;5056863;28;47112;-92
2022/05/17 00:06:53;;;;;;;;;4.67;4.00;;;;;23.57;46.00;101492.44;5063951;28;45299;-93
2022/05/17 00:09:19;;;;;;;;;5.00;4.00;;;;;23.23;45.76;101457.28;5063893;28;45451;-94
2022/05/17 00:11:45;;;;;;;;;5.67;4.00;;;;;22.88;45.29;101390.44;5064497;28;45551;-93
2022/05/17 00:14:12;;;;;;;;;6.33;5.00;;;;;23.20;45.72;101438.50;5063654;28;47162;-94
2022/05/17 00:16:38;;;;;;;;;3.00;3.00;;;;;23.29;45.09;101461.31;5063521;28;45822;-93
2022/05/17 00:19:04;;;;;;;;;6.00;6.00;;;;;23.83;45.84;101546.50;5064079;28;45301;-94
2022/05/17 00:21:29;;;;;;;;;3.00;3.00;;;;;23.46;45.17;101489.78;5064221;28;45239;-93
2022/05/17 00:23:55;;;;;;;;;3.33;3.33;;;;;23.07;45.43;101421.53;5063568;28;47614;-93
2022/05/17 00:26:21;;;;;;;;;3.00;3.00;;;;;23.33;45.41;101477.25;5063795;28;45373;-94
2022/05/17 00:28:46;;;;;;;;;4.00;4.00;;;;;23.84;44.90;101553.69;5047395;28;45539;-85
2022/05/17 00:31:12;;;;;;;;;5.00;3.00;;;;;23.66;44.93;101527.03;5065983;28;45549;-85
2022/05/17 00:33:37;;;;;;;;;4.00;3.00;;;;;23.36;45.63;101487.84;5059246;28;45584;-85
2022/05/17 00:36:03;;;;;;;;;4.67;4.67;;;;;23.36;45.36;101484.28;5044439;28;46004;-84
2022/05/17 00:38:29;;;;;;;;;3.33;3.33;;;;;23.15;45.21;101452.47;5069141;28;45842;-84
2022/05/17 00:40:55;;;;;;;;;5.67;4.67;;;;;23.77;45.39;101542.47;5049312;28;45491;-85
2022/05/17 00:44:42;;;;;;;;;4.00;4.00;;;;;23.75;45.48;101553.47;5065442;28;47099;-84
2022/05/17 00:46:26;;;;;;;;;3.33;3.00;;;;;23.70;45.64;101546.69;5063150;28;45564;-85
2022/05/17 00:48:53;;;;;;;;;5.67;4.33;;;;;23.24;45.89;101474.47;5070096;28;45447;-84
2022/05/17 00:51:21;;;;;;;;;3.00;3.00;;;;;23.19;46.33;101483.00;5069918;28;45476;-84
2022/05/17 00:53:46;;;;;;;;;4.67;4.33;;;;;22.99;46.62;101451.22;5067432;28;45367;-84
2022/05/17 00:56:17;;;;;;;;;6.00;4.00;;;;;23.44;46.09;101524.44;5046045;28;45295;-85
2022/05/17 00:58:46;;;;;;;;;3.33;3.33;;;;;23.10;46.97;101473.78;5034895;28;45473;-85
2022/05/17 01:01:15;;;;;;;;;2.00;2.00;;;;;23.22;46.41;101492.75;5062698;28;45734;-85
2022/05/17 01:03:45;;;;;;;;;4.00;2.33;;;;;23.45;46.41;101539.78;5062425;28;47568;-84
2022/05/17 01:06:12;;;;;;;;;4.00;4.00;;;;;23.43;47.16;101537.16;5069925;28;45518;-85
2022/05/17 01:08:37;;;;;;;;;4.00;4.00;;;;;23.16;47.14;101500.47;5065878;28;45299;-85
2022/05/17 01:11:02;;;;;;;;;4.00;4.00;;;;;22.83;47.17;101446.16;5067347;28;45213;-85
2022/05/17 01:16:12;;;;;;;;;4.00;3.00;;;;;22.59;47.27;101414.63;5070106;28;45943;-84
2022/05/17 01:18:41;;;;;;;;;4.00;4.00;;;;;23.05;47.65;101500.50;5065852;28;45583;-84
2022/05/17 01:21:09;;;;;;;;;3.33;3.33;;;;;22.52;47.59;101425.19;5064318;28;45730;-84
2022/05/17 01:23:35;;;;;;;;;4.00;2.67;;;;;22.54;47.44;101420.44;5069206;28;45454;-84
2022/05/17 01:26:02;;;;;;;;;3.00;3.00;;;;;22.57;47.48;101430.22;5055235;28;45496;-85
2022/05/17 01:28:33;;;;;;;;;2.00;2.00;;;;;22.83;47.36;101481.50;5045779;28;45449;-84
2022/05/17 01:31:04;;;;;;;;;4.00;4.00;;;;;22.79;47.14;101477.34;5069280;28;45503;-84
2022/05/17 01:33:32;;;;;;;;;6.33;3.33;;;;;23.10;47.42;101535.47;5062460;28;45452;-84
2022/05/17 01:35:58;;;;;;;;;2.67;2.67;;;;;22.87;47.24;101507.44;5048611;28;45647;-84
2022/05/17 01:38:23;;;;;;;;;3.00;3.00;;;;;22.79;46.91;101488.22;5044356;28;45490;-84
2022/05/17 01:40:49;;;;;;;;;4.00;4.00;;;;;23.00;47.55;101523.66;5051916;28;45763;-84
2022/05/17 01:43:14;;;;;;;;;3.00;3.00;;;;;22.87;46.93;101505.59;5061215;28;47271;-84
2022/05/17 01:45:39;;;;;;;;;2.00;2.00;;;;;22.39;46.66;101424.47;5067605;28;45563;-84
2022/05/17 01:48:05;;;;;;;;;1.33;1.33;;;;;22.11;47.05;101402.25;5062797;27;45686;-84
2022/05/17 01:50:31;;;;;;;;;2.33;2.33;;;;;22.95;46.86;101533.00;5064962;27;45433;-84
2022/05/17 01:52:56;;;;;;;;;5.33;2.00;;;;;22.59;46.76;101484.44;5050175;28;47207;-84
2022/05/17 01:55:21;;;;;;;;;3.00;3.00;;;;;22.99;46.79;101568.13;5061602;28;45407;-85
2022/05/17 01:57:47;;;;;;;;;4.33;3.00;;;;;22.74;46.48;101524.78;5064248;28;45705;-85
2022/05/17 02:00:15;;;;;;;;;3.00;3.00;;;;;22.77;47.03;101534.53;5056964;28;45457;-85
2022/05/17 02:02:41;;;;;;;;;2.67;2.67;;;;;22.28;47.13;101443.50;5065088;28;46287;-85
2022/05/17 02:05:07;;;;;;;;;3.00;2.33;;;;;22.82;46.59;101540.44;5062507;28;45457;-85
2022/05/17 02:07:33;;;;;;;;;4.00;3.00;;;;;22.72;46.63;101521.31;5048844;28;45425;-85
2022/05/17 02:09:58;;;;;;;;;3.33;3.33;;;;;22.65;47.04;101509.25;5062703;28;45338;-85
2022/05/17 02:12:24;;;;;;;;;3.00;2.00;;;;;22.57;46.81;101479.13;5066188;28;45487;-85
2022/05/17 02:14:49;;;;;;;;;2.33;2.33;;;;;22.45;46.84;101471.97;5064225;28;45454;-85
2022/05/17 02:17:15;;;;;;;;;3.33;3.33;;;;;22.59;46.38;101493.44;5059815;28;45438;-84
2022/05/17 02:19:40;;;;;;;;;3.67;3.00;;;;;22.71;46.70;101513.28;5067275;27;45315;-85
2022/05/17 02:22:06;;;;;;;;;2.00;2.00;;;;;22.26;46.80;101440.03;5046565;28;47940;-85
2022/05/17 02:24:31;;;;;;;;;4.67;1.33;;;;;22.47;46.96;101472.72;5045967;28;45967;-85
2022/05/17 02:26:57;;;;;;;;;3.00;3.00;;;;;23.07;47.00;101565.66;5045994;28;45378;-84
2022/05/17 02:29:23;;;;;;;;;2.00;2.00;;;;;22.55;46.67;101472.97;5042369;28;45928;-84
2022/05/17 02:31:49;;;;;;;;;1.00;1.00;;;;;22.81;46.35;101527.88;5045641;28;47270;-84
2022/05/17 02:34:14;;;;;;;;;1.00;1.00;;;;;22.45;46.37;101475.59;5062193;28;45516;-84
2022/05/17 02:36:40;;;;;;;;;4.00;3.00;;;;;22.50;46.04;101469.75;5066433;28;45427;-84
2022/05/17 02:39:05;;;;;;;;;1.67;1.67;;;;;22.65;46.32;101497.50;5066298;28;45456;-85
2022/05/17 02:41:30;;;;;;;;;3.00;3.00;;;;;22.78;45.87;101528.13;5047271;28;48397;-84
2022/05/17 02:43:56;;;;;;;;;4.33;3.33;;;;;22.46;46.28;101465.56;5064376;27;45425;-85
2022/05/17 02:46:21;;;;;;;;;3.67;2.00;;;;;22.54;46.46;101476.66;5061913;28;45371;-85
2022/05/17 02:48:46;;;;;;;;;1.33;1.33;;;;;23.02;45.88;101566.03;5060939;28;45503;-84
2022/05/17 02:51:15;;;;;;;;;2.00;2.00;;;;;22.48;46.40;101464.44;5037119;28;47553;-84
2022/05/17 02:53:40;;;;;;;;;2.00;2.00;;;;;22.85;46.27;101533.91;5042846;28;45462;-85
2022/05/17 02:56:07;;;;;;;;;5.00;3.00;;;;;22.83;46.47;101520.44;5065645;28;45711;-85
2022/05/17 02:58:33;;;;;;;;;2.67;2.67;;;;;22.93;46.56;101543.16;5043910;28;45613;-85
2022/05/17 03:00:58;;;;;;;;;2.33;2.00;;;;;22.34;46.04;101434.84;5062243;28;46227;-85
2022/05/17 03:03:24;;;;;;;;;2.33;2.33;;;;;22.99;46.91;101546.38;5063442;28;45343;-84
2022/05/17 03:05:49;;;;;;;;;2.00;2.00;;;;;22.51;46.46;101461.47;5055194;28;45356;-84
2022/05/17 03:08:14;;;;;;;;;3.00;3.00;;;;;23.00;46.37;101543.53;5063933;28;45441;-84
2022/05/17 03:10:39;;;;;;;;;2.00;2.00;;;;;22.78;46.37;101506.38;5051941;28;48276;-84
2022/05/17 03:13:05;;;;;;;;;4.00;3.00;;;;;22.59;46.60;101487.13;5063804;28;45463;-85
2022/05/17 03:15:30;;;;;;;;;2.00;2.00;;;;;22.89;46.71;101529.94;5060460;28;45457;-84
2022/05/17 03:17:56;;;;;;;;;2.33;2.33;;;;;22.24;47.15;101437.47;5058761;28;45531;-84
2022/05/17 03:20:21;;;;;;;;;1.67;1.67;;;;;22.45;46.69;101478.31;5056882;28;45607;-84
2022/05/17 03:22:46;;;;;;;;;3.67;2.33;;;;;22.45;47.32;101488.28;5054287;28;45536;-84
2022/05/17 03:25:12;;;;;;;;;3.00;2.00;;;;;22.49;46.95;101504.19;5066354;27;46366;-84
2022/05/17 03:27:37;;;;;;;;;2.00;2.00;;;;;22.53;47.09;101497.53;5068668;28;45517;-84
2022/05/17 03:30:04;;;;;;;;;1.67;1.67;;;;;22.88;47.01;101547.25;5057141;28;45483;-84
2022/05/17 03:32:29;;;;;;;;;2.00;2.00;;;;;22.28;47.27;101459.78;5067421;28;45454;-84
2022/05/17 03:34:55;;;;;;;;;5.00;3.00;;;;;22.59;46.83;101506.16;5070867;28;45412;-84
2022/05/17 03:37:20;;;;;;;;;4.00;2.33;;;;;22.64;47.51;101512.97;5067880;28;45402;-84
2022/05/17 03:39:45;;;;;;;;;3.33;2.33;;;;;22.55;47.58;101514.56;5068978;28;45303;-84
2022/05/17 03:42:13;;;;;;;;;4.00;2.67;;;;;22.32;48.14;101483.00;5049130;28;45396;-84
2022/05/17 03:44:39;;;;;;;;;1.33;1.00;;;;;21.90;48.00;101404.88;5066206;28;45366;-84
2022/05/17 03:47:06;;;;;;;;;4.33;3.00;;;;;22.73;47.85;101555.69;5067773;28;45434;-84
2022/05/17 03:49:32;;;;;;;;;4.00;2.00;;;;;22.13;47.67;101457.31;5059412;28;46492;-84
2022/05/17 03:51:57;;;;;;;;;4.00;3.00;;;;;22.27;48.15;101491.53;5053416;28;46086;-84
2022/05/17 03:54:23;;;;;;;;;3.00;3.00;;;;;21.91;48.48;101436.47;5068708;28;45816;-84
2022/05/17 03:56:49;;;;;;;;;3.00;3.00;;;;;22.37;48.30;101526.94;5071762;28;45517;-84
2022/05/17 03:59:14;;;;;;;;;3.00;3.00;;;;;22.00;48.20;101463.84;5066841;28;45565;-84
2022/05/17 04:01:40;;;;;;;;;4.00;4.00;;;;;22.10;48.75;101492.88;5068853;27;45418;-84
2022/05/17 04:04:05;;;;;;;;;3.00;3.00;;;;;21.80;49.33;101435.63;5073507;28;45450;-84
2022/05/17 04:06:31;;;;;;;;;3.00;2.33;;;;;22.41;49.45;101539.28;5067027;28;45526;-83
2022/05/17 04:08:56;;;;;;;;;3.00;2.00;;;;;22.41;49.42;101557.47;5067917;28;45400;-83
2022/05/17 04:11:22;;;;;;;;;3.67;3.67;;;;;21.90;49.38;101472.72;5073032;28;45791;-83
2022/05/17 04:13:47;;;;;;;;;2.33;2.00;;;;;21.99;49.53;101497.44;5065563;28;45629;-83
2022/05/17 04:16:12;;;;;;;;;4.00;4.00;;;;;22.35;49.71;101558.78;5051562;28;45623;-83
2022/05/17 04:18:38;;;;;;;;;5.33;4.00;;;;;21.70;49.65;101460.78;5063311;28;46661;-82
2022/05/17 04:21:05;;;;;;;;;4.33;4.33;;;;;22.28;50.05;101555.69;5047308;28;45790;-83
2022/05/17 04:23:31;;;;;;;;;2.67;2.67;;;;;22.24;50.29;101556.06;5055339;28;45513;-83
2022/05/17 04:25:57;;;;;;;;;5.00;3.00;;;;;22.20;50.01;101558.16;5060605;28;45855;-83
2022/05/17 04:28:23;;;;;;;;;2.00;2.00;;;;;22.15;50.64;101563.09;5048788;28;48250;-83
2022/05/17 04:30:49;;;;;;;;;1.00;1.00;;;;;21.75;50.98;101503.81;5066341;28;45537;-83
2022/05/17 04:33:14;;;;;;;;;3.00;3.00;;;;;21.90;50.33;101543.31;5049009;28;45502;-83
2022/05/17 04:35:41;;;;;;;;;2.33;2.33;;;;;21.96;51.29;101557.38;5054597;28;45585;-83
2022/05/17 04:38:07;;;;;;;;;3.33;3.33;;;;;21.44;51.27;101475.50;5068073;28;45462;-83
2022/05/17 04:40:33;;;;;;;;;4.00;3.00;;;;;22.01;51.09;101572.31;5068144;28;45591;-83
2022/05/17 04:42:58;;;;;;;;;3.00;3.00;;;;;21.71;51.48;101534.88;5064698;28;45806;-83
2022/05/17 04:45:24;;;;;;;;;2.33;2.33;;;;;21.44;51.15;101484.50;5068208;28;45233;-83
2022/05/17 04:47:50;;;;;;;;;4.33;4.33;;;;;21.80;51.09;101550.44;5069639;28;45540;-83
2022/05/17 04:50:17;;;;;;;;;4.00;3.00;;;;;21.98;51.31;101585.25;5066673;28;45828;-83
2022/05/17 04:52:43;;;;;;;;;4.50;4.50;;;;;21.96;51.50;101576.38;5071788;28;45512;-83
2022/05/17 04:55:10;;;;;;;;;3.00;3.00;;;;;21.73;51.44;101540.16;5045639;28;45920;-83
2022/05/17 04:57:37;;;;;;;;;3.67;3.67;;;;;21.32;52.03;101465.59;5064123;28;46103;-83
2022/05/17 05:00:09;;;;;;;;;3.33;3.33;;;;;22.00;51.89;101581.44;5065010;28;45500;-83
2022/05/17 05:02:35;;;;;;;;;5.00;5.00;;;;;21.73;51.88;101537.47;5072954;28;45427;-84
2022/05/17 05:05:00;;;;;;;;;4.67;4.00;;;;;21.68;52.04;101532.38;5069085;28;45350;-84
2022/05/17 05:07:26;;;;;;;;;2.67;2.67;;;;;21.74;51.59;101548.22;5061473;28;45434;-84
2022/05/17 05:09:51;;;;;;;;;4.67;4.67;;;;;21.61;52.58;101532.03;5066784;28;45523;-83
2022/05/17 05:12:17;;;;;;;;;4.33;3.33;;;;;21.38;52.17;101494.94;5065642;28;45452;-83
2022/05/17 05:14:42;;;;;;;;;3.33;2.33;;;;;21.52;52.14;101516.47;5044356;28;45653;-86
2022/05/17 05:17:09;;;;;;;;;5.00;5.00;;;;;22.07;52.44;101603.53;5061179;28;46034;-86
2022/05/17 05:19:34;;;;;;;;;4.33;3.00;;;;;21.59;52.43;101527.72;5042338;28;45899;-86
2022/05/17 05:22:00;;;;;;;;;7.33;4.33;;;;;21.65;52.27;101522.66;5048748;28;45575;-86
2022/05/17 05:24:25;;;;;;;;;6.00;5.00;;;;;21.86;53.38;101552.66;5066729;28;45522;-85
2022/05/17 05:26:51;;;;;;;;;6.33;6.33;;;;;21.50;53.09;101503.00;5048460;28;48333;-85
2022/05/17 05:29:16;;;;;;;;;8.33;5.67;;;;;21.88;52.19;101553.41;5063426;28;45481;-86
2022/05/17 05:31:41;;;;;;;;;5.00;5.00;;;;;22.14;52.06;101597.50;5069387;28;45441;-85
2022/05/17 05:34:07;;;;;;;;;4.33;4.00;;;;;21.71;52.44;101527.59;5067013;27;45528;-83
2022/05/17 05:36:32;;;;;;;;;5.33;5.33;;;;;22.34;52.16;101622.28;5038273;28;47697;-84
2022/05/17 05:38:58;;;;;;;;;9.00;7.00;;;;;22.31;52.02;101617.94;5058891;28;45561;-85
2022/05/17 05:41:23;;;;;;;;;6.67;6.00;;;;;22.17;51.94;101590.97;5050111;28;45580;-83
2022/05/17 05:43:48;;;;;;;;;6.33;4.33;;;;;22.02;52.47;101562.31;5064324;28;45579;-85
2022/05/17 05:46:14;;;;;;;;;10.00;10.00;;;;;22.18;53.02;101603.56;5071752;28;45587;-85
2022/05/17 05:48:39;;;;;;;;;12.00;11.00;;;;;22.01;53.50;101572.31;5057210;28;45564;-85
2022/05/17 05:51:05;;;;;;;;;9.33;8.67;;;;;21.99;53.67;101549.00;5060430;28;45521;-84
2022/05/17 05:53:30;;;;;;;;;14.33;9.00;;;;;22.45;53.65;101611.41;5048945;28;45694;-84
2022/05/17 05:56:01;;;;;;;;;10.67;10.67;;;;;22.60;53.69;101632.91;5065781;27;45459;-84
2022/05/17 05:58:30;;;;;;;;;13.00;11.33;;;;;22.31;54.45;101563.63;5067401;28;45515;-84
2022/05/17 06:00:56;;;;;;;;;9.00;8.67;;;;;22.59;53.15;101602.13;5066351;28;45581;-83
2022/05/17 06:03:21;;;;;;;;;11.00;11.00;;;;;22.46;53.86;101575.09;5061370;28;45517;-84
2022/05/17 06:05:47;;;;;;;;;11.33;8.67;;;;;22.67;52.49;101601.53;5044609;28;46279;-86
2022/05/17 06:08:14;;;;;;;;;7.33;7.33;;;;;22.56;52.44;101586.06;5050428;28;45413;-86
2022/05/17 06:10:43;;;;;;;;;10.33;9.00;;;;;22.55;52.87;101579.78;5059450;28;45468;-87
2022/05/17 06:13:10;;;;;;;;;13.33;9.33;;;;;21.91;51.59;101474.47;5051504;28;45531;-84
2022/05/17 06:15:36;;;;;;;;;9.00;9.00;;;;;22.40;52.08;101548.41;5063709;28;45767;-85
2022/05/17 06:18:03;;;;;;;;;9.67;9.00;;;;;22.93;51.38;101643.75;5043619;27;45905;-85
2022/05/17 06:20:29;;;;;;;;;13.33;12.67;;;;;22.73;51.58;101601.00;5065764;28;45480;-85
2022/05/17 06:22:54;;;;;;;;;8.00;8.00;;;;;22.64;50.96;101578.19;5048220;28;45600;-84
2022/05/17 06:25:23;;;;;;;;;9.00;8.00;;;;;22.43;51.35;101544.59;5066298;28;45587;-87
2022/05/17 06:27:48;;;;;;;;;10.67;8.67;;;;;22.47;50.78;101541.50;5045778;28;45457;-84
2022/05/17 06:30:20;;;;;;;;;7.33;7.33;;;;;22.87;51.26;101605.31;5057471;28;45956;-86
2022/05/17 06:32:46;;;;;;;;;7.00;6.00;;;;;22.26;50.07;101488.91;5044542;28;45530;-86
2022/05/17 06:35:12;;;;;;;;;7.00;7.00;;;;;22.07;49.66;101455.06;5062787;28;46122;-86
2022/05/17 06:37:46;;;;;;;;;7.00;7.00;;;;;23.23;49.68;101650.41;5041787;28;45549;-88
2022/05/17 06:40:13;;;;;;;;;6.33;5.33;;;;;22.70;48.85;101544.19;5042186;28;45466;-89
2022/05/17 06:42:55;;;;;;;;;3.33;3.33;;;;;22.62;48.51;101523.09;5041124;28;45510;-90
2022/05/17 06:45:20;;;;;;;;;3.33;3.33;;;;;23.33;47.93;101634.19;5043942;28;47640;-87
2022/05/17 06:47:46;;;;;;;;;5.00;5.00;;;;;22.84;47.24;101540.34;5045820;28;45526;-89
2022/05/17 06:50:14;;;;;;;;;5.33;4.00;;;;;22.66;47.47;101510.97;5062538;28;45382;-89
2022/05/17 06:52:40;;;;;;;;;5.00;5.00;;;;;22.84;47.42;101543.91;5056450;28;45712;-92
2022/05/17 06:58:03;;;;;;;;;4.33;4.33;;;;;22.46;46.73;101460.13;5055616;28;45438;-88
2022/05/17 07:00:28;;;;;;;;;6.00;6.00;;;;;22.81;46.93;101511.56;5070458;28;45319;-93
2022/05/17 07:02:54;;;;;;;;;6.00;4.00;;;;;23.22;46.99;101583.38;5063032;28;45607;-93
2022/05/17 07:05:19;;;;;;;;;5.00;4.00;;;;;23.02;47.32;101552.44;5056644;28;47135;-96
2022/05/17 07:07:45;;;;;;;;;8.00;6.00;;;;;23.68;47.07;101642.09;5044518;28;46046;-93
2022/05/17 07:13:08;;;;;;;;;6.67;5.00;;;;;23.18;46.20;101546.56;5077221;28;45378;-87
2022/05/17 07:15:37;;;;;;;;;3.33;3.33;;;;;23.80;46.62;101643.78;5039788;28;47304;-85
2022/05/17 07:18:03;;;;;;;;;5.00;5.00;;;;;23.21;46.68;101512.81;5058932;28;45528;-86
2022/05/17 07:20:29;;;;;;;;;6.00;5.67;;;;;23.72;46.00;101600.00;5060972;28;45352;-88
2022/05/17 07:23:16;;;;;;;;;5.67;5.00;;;;;23.39;48.00;101531.16;5038159;28;45596;-86
2022/05/17 07:26:02;;;;;;;;;4.67;4.00;;;;;23.52;45.99;101550.00;5064809;28;47000;-87
2022/05/17 07:29:00;;;;;;;;;6.67;4.00;;;;;23.22;45.28;101499.06;5067443;28;45512;-85
2022/05/17 07:31:34;;;;;;;;;6.33;5.00;;;;;23.65;45.57;101551.66;5049526;22;45428;-90
2022/05/17 07:34:39;;;;;;;;;5.67;4.00;;;;;22.93;45.75;101433.53;5038805;28;45412;-92
2022/05/17 07:37:15;;;;;;;;;4.00;4.00;;;;;23.11;47.59;101450.19;4996132;28;46293;-92
2022/05/17 07:39:50;;;;;;;;;7.67;5.00;;;;;24.28;44.84;101642.41;4996089;28;45500;-92
2022/05/17 07:42:23;;;;;;;;;2.67;2.67;;;;;23.43;45.67;101487.34;4979789;28;45624;-91
2022/05/17 07:44:58;;;;;;;;;6.00;4.00;;;;;23.75;44.53;101536.28;4996201;28;45373;-89
2022/05/17 07:47:24;;;;;;;;;4.00;4.00;;;;;24.06;44.26;101578.03;5002670;28;45473;-89
2022/05/17 07:49:49;;;;;;;;;4.33;4.00;;;;;24.51;43.82;101650.44;4991536;28;45565;-92
2022/05/17 07:52:15;;;;;;;;;5.33;5.00;;;;;23.84;43.31;101513.72;5010220;28;45324;-92
2022/05/17 07:54:41;;;;;;;;;5.00;5.00;;;;;24.36;42.55;101601.72;4994180;28;45742;-88
2022/05/17 07:57:07;;;;;;;;;6.33;6.33;;;;;23.46;42.76;101433.53;4994478;28;45492;-88
2022/05/17 07:59:33;;;;;;;;;5.00;5.00;;;;;24.72;42.99;101628.56;4988629;28;45500;-88
2022/05/17 08:01:59;;;;;;;;;1.67;1.67;;;;;23.65;42.31;101440.06;4993295;28;45430;-89
2022/05/17 08:04:32;;;;;;;;;3.33;3.33;;;;;23.80;42.10;101469.53;4994424;28;45414;-91
2022/05/17 08:07:04;;;;;;;;;4.33;2.00;;;;;23.95;42.21;101480.97;5023925;28;45559;-93
2022/05/17 08:09:33;;;;;;;;;2.33;2.33;;;;;24.97;41.54;101654.50;5036926;28;45346;-89
2022/05/17 08:12:01;;;;;;;;;4.00;4.00;;;;;24.18;42.72;101499.81;5036590;28;45301;-89
2022/05/17 08:14:29;;;;;;;;;4.33;3.67;;;;;24.88;40.43;101584.44;5037023;28;45460;-91
2022/05/17 08:16:54;;;;;;;;;4.00;3.67;;;;;24.13;40.56;101472.13;5035146;28;47577;-86
2022/05/17 08:19:20;;;;;;;;;2.33;2.33;;;;;24.47;40.66;101507.25;5039010;28;45717;-87
2022/05/17 08:21:46;;;;;;;;;4.67;3.00;;;;;24.41;40.19;101495.03;5039394;28;45630;-88
2022/05/17 08:24:12;;;;;;;;;4.00;2.33;;;;;25.02;41.81;101564.94;5040272;28;45615;-90
2022/05/17 08:29:21;;;;;;;;;3.00;3.00;;;;;25.04;39.81;101546.56;5039766;28;45469;-88
2022/05/17 08:33:14;;;;;;;;;2.33;2.33;;;;;25.25;38.33;101563.69;5038716;28;45368;-91
2022/05/17 08:34:32;;;;;;;;;4.67;3.00;;;;;25.77;38.24;101625.34;5027663;28;45510;-91
2022/05/17 08:36:58;;;;;;;;;3.33;2.00;;;;;25.63;36.66;101572.03;5027586;28;45343;-87
2022/05/17 08:39:26;;;;;;;;;2.67;2.00;;;;;25.63;36.89;101537.38;5026002;28;45672;-89
2022/05/17 08:42:23;;;;;;;;;3.00;3.00;;;;;25.73;36.13;101493.69;5026375;28;45292;-89
2022/05/17 08:44:51;;;;;;;;;2.00;2.00;;;;;26.16;35.55;101459.47;5021146;28;45562;-92
2022/05/17 08:47:25;;;;;;;;;3.00;2.00;;;;;27.61;34.95;101560.75;5054587;28;46982;-86
2022/05/17 08:49:59;;;;;;;;;2.00;2.00;;;;;28.83;33.74;101617.38;5056490;28;45464;-87
2022/05/17 08:52:27;;;;;;;;;1.00;1.00;;;;;29.79;32.78;101605.09;5057183;28;45523;-86
2022/05/17 08:55:00;;;;;;;;;3.33;2.00;;;;;30.73;31.91;101611.78;5057601;28;45399;-87
2022/05/17 08:57:41;;;;;;;;;1.33;1.33;;;;;31.31;30.23;101551.75;5056265;28;47290;-87
2022/05/17 09:00:13;;;;;;;;;3.00;3.00;;;;;32.40;28.45;101601.91;5056658;28;45339;-87
2022/05/17 09:02:52;;;;;;;;;2.33;2.33;;;;;33.06;28.47;101590.97;5056703;28;45504;-87
2022/05/17 09:05:27;;;;;;;;;3.00;3.00;;;;;33.77;27.15;101593.81;5039664;28;45444;-87
2022/05/17 09:08:10;;;;;;;;;2.33;1.67;;;;;34.52;27.33;101594.16;5056241;28;45924;-87
2022/05/17 09:10:43;;;;;;;;;1.00;1.00;;;;;34.75;27.21;101535.69;5055696;28;45504;-88
2022/05/17 09:13:28;;;;;;;;;2.00;2.00;;;;;35.80;25.32;101604.56;5055734;28;45418;-88
2022/05/17 09:15:59;;;;;;;;;1.00;1.00;;;;;36.17;22.54;101591.97;5036497;28;45416;-89
2022/05/17 09:18:26;;;;;;;;;1.67;1.67;;;;;36.51;24.59;101571.38;5038454;28;47986;-88
2022/05/17 09:20:52;;;;;;;;;0.00;0.00;;;;;36.87;22.90;101550.50;5053539;28;45393;-89
2022/05/17 09:23:17;;;;;;;;;0.00;0.00;;;;;37.31;22.09;101534.88;5036895;28;45255;-89
2022/05/17 09:25:52;;;;;;;;;0.00;0.00;;;;;38.21;20.65;101587.41;5054532;28;45468;-88
2022/05/17 09:28:23;;;;;;;;;3.00;1.00;;;;;38.15;20.42;101479.72;5018963;28;46385;-88
2022/05/17 09:31:12;;;;;;;;;1.00;1.00;;;;;38.36;20.53;101449.69;5025223;28;45524;-89
2022/05/17 09:33:40;;;;;;;;;1.00;0.00;;;;;39.64;19.67;101571.16;5038682;28;45267;-89
2022/05/17 09:36:08;;;;;;;;;1.67;0.00;;;;;39.59;18.38;101511.53;5039046;28;45542;-89
2022/05/17 09:38:38;;;;;;;;;0.67;0.00;;;;;40.33;17.92;101552.97;5044904;28;46110;-89
2022/05/17 09:41:12;;;;;;;;;0.00;0.00;;;;;40.64;16.90;101548.84;5040569;28;45366;-89
2022/05/17 09:43:37;;;;;;;;;0.00;0.00;;;;;41.33;17.74;101582.41;5058494;28;45228;-89
2022/05/17 09:46:14;;;;;;;;;0.67;0.00;;;;;41.72;17.25;101583.34;5041119;28;45179;-88
2022/05/17 09:54:47;;;;;;;;;1.67;0.67;;;;;43.47;16.34;101578.06;5058505;28;45588;-89
2022/05/17 09:57:29;;;;;;;;;1.33;0.00;;;;;44.12;15.67;101580.84;5040296;28;45629;-88
2022/05/17 10:00:12;;;;;;;;;1.00;0.00;;;;;44.35;13.67;101515.75;5040157;28;47112;-90
2022/05/17 10:03:04;;;;;;;;;0.67;0.67;;;;;45.11;14.36;101575.34;5058020;28;45446;-89
2022/05/17 10:05:45;;;;;;;;;0.67;0.67;;;;;46.15;12.80;101550.50;5057904;28;45446;-89
2022/05/17 10:08:13;;;;;;;;;0.00;0.00;;;;;47.38;13.09;101572.44;5058086;28;45873;-88
2022/05/17 10:11:00;;;;;;;;;0.00;0.00;;;;;48.22;12.16;101532.63;5039526;28;47402;-89
2022/05/17 10:13:46;;;;;;;;;0.00;0.00;;;;;49.66;11.16;101585.13;5057063;28;45592;-89
2022/05/17 10:16:18;;;;;;;;;1.00;1.00;;;;;50.50;10.68;101537.81;4957239;28;45488;-89
2022/05/17 10:18:53;;;;;;;;;0.00;0.00;;;;;51.11;9.69;101495.78;4957091;28;45515;-90
2022/05/17 10:21:27;;;;;;;;;0.00;0.00;;;;;52.21;8.61;101562.44;4970237;28;48247;-90
2022/05/17 10:24:04;;;;;;;;;0.00;0.00;;;;;52.48;8.53;101564.22;4976457;28;45399;-88
2022/05/17 10:26:36;;;;;;;;;0.67;0.00;;;;;52.69;8.60;101541.63;4959826;28;45546;-96
2022/05/17 10:29:14;;;;;;;;;0.00;0.00;;;;;53.42;8.34;101552.34;4961045;28;45496;-89
2022/05/17 10:32:09;;;;;;;;;0.00;0.00;;;;;53.96;7.76;101547.78;4975165;28;46610;-89
2022/05/17 10:35:12;;;;;;;;;0.00;0.00;;;;;54.45;8.03;101546.53;4957996;28;46011;-88
2022/05/17 10:37:52;;;;;;;;;0.00;0.00;;;;;54.40;7.28;101504.75;4959367;28;45609;-88
2022/05/17 10:40:43;;;;;;;;;0.00;0.00;;;;;54.22;7.66;101508.88;4975140;28;45538;-87
2022/05/17 10:43:15;;;;;;;;;0.00;0.00;;;;;54.25;7.51;101520.44;4958917;28;48086;-88
2022/05/17 10:45:41;;;;;;;;;0.00;0.00;;;;;54.24;6.86;101540.78;4958915;28;45460;-89
2022/05/17 10:48:30;;;;;;;;;0.00;0.00;;;;;53.89;7.75;101518.94;4976198;28;45479;-88
2022/05/17 10:51:04;;;;;;;;;0.00;0.00;;;;;53.80;7.15;101525.88;4975657;28;45528;-88
2022/05/17 10:53:44;;;;;;;;;0.00;0.00;;;;;53.48;7.83;101514.72;5010432;28;45559;-88
2022/05/17 10:56:37;;;;;;;;;0.00;0.00;;;;;52.94;7.55;101522.84;5019077;28;46198;-88
2022/05/17 10:59:44;;;;;;;;;0.00;0.00;;;;;51.84;8.12;101519.94;5019368;28;45441;-89
2022/05/17 11:02:15;;;;;;;;;0.00;0.00;;;;;50.23;8.35;101514.81;4956378;28;45718;-89
2022/05/17 11:04:59;;;;;;;;;1.00;0.00;;;;;48.58;9.75;101521.69;4955659;28;45708;-89
2022/05/17 11:07:36;;;;;;;;;0.00;0.00;;;;;46.60;10.82;101503.53;4956135;28;45660;-87
2022/05/17 11:10:25;;;;;;;;;0.00;0.00;;;;;44.92;12.34;101499.88;4973086;28;45504;-88
2022/05/17 11:13:17;;;;;;;;;0.00;0.00;;;;;42.34;12.48;101337.69;4958519;28;45673;-87
2022/05/17 11:16:16;;;;;;;;;0.00;0.00;;;;;41.57;14.08;101405.91;4974060;28;48534;-88
2022/05/17 11:19:20;;;;;;;;;0.00;0.00;;;;;41.32;14.68;101489.19;4972322;28;45619;-90
2022/05/17 11:21:57;;;;;;;;;0.00;0.00;;;;;40.64;15.18;101423.91;4967750;28;45585;-89
2022/05/17 11:24:57;;;;;;;;;0.00;0.00;;;;;40.66;15.53;101485.16;4958444;28;45617;-87
2022/05/17 11:27:22;;;;;;;;;5.67;1.33;;;;;40.44;16.06;101476.63;4897156;28;46383;-90
2022/05/17 11:30:34;;;;;;;;;0.00;0.00;;;;;40.19;15.69;101462.97;4896336;29;45488;-93
2022/05/17 11:33:24;;;;;;;;;0.33;0.33;;;;;40.13;15.31;101472.31;4877815;29;45629;-87
2022/05/17 11:36:03;;;;;;;;;1.33;0.67;;;;;39.10;16.00;101358.31;4878257;29;45592;-86
2022/05/17 11:38:31;;;;;;;;;2.00;0.00;;;;;39.41;16.31;101426.03;4915727;28;45598;-87
2022/05/17 11:40:59;;;;;;;;;2.00;2.00;;;;;38.57;15.48;101353.63;4927923;28;46234;-88
2022/05/17 11:43:44;;;;;;;;;1.00;1.00;;;;;38.27;16.81;101361.97;4930282;28;45457;-89
2022/05/17 11:46:28;;;;;;;;;1.33;0.67;;;;;38.68;16.88;101457.84;4932815;28;45680;-87
2022/05/17 11:48:59;;;;;;;;;2.00;1.00;;;;;38.06;17.07;101402.31;4928614;28;45457;-87
2022/05/17 11:51:30;;;;;;;;;1.00;1.00;;;;;37.87;16.96;101409.81;4932325;28;46073;-89
2022/05/17 11:53:56;;;;;;;;;3.67;1.00;;;;;37.96;17.00;101453.78;4934309;28;45412;-89
2022/05/17 11:56:24;;;;;;;;;0.00;0.00;;;;;37.73;17.37;101445.28;4935908;28;45675;-88